Time;durP1;ratioP1;P1;durP2;ratioP2;P2;SDS_P1;SDS_P2;PMS_P1;PMS_P2;Temp;Humidity;BMP_temperature;BMP_pressure;BME280_temperature;BME280_humidity;BME280_pressure;Samples;Min_cycle;Max_cycle;Signal;HPM_P1;HPM_P2
2022/06/27 00:03:49;;;;;;;7.53;5.40;;;;;;;;;;8337125;28;20041;-85
2022/06/27 00:07:51;;;;;;;8.30;5.68;;;;;;;;;;8335168;28;20049;-86
2022/06/27 00:11:55;;;;;;;10.65;6.82;;;;;;;;;;8357402;28;20045;-86
2022/06/27 00:15:58;;;;;;;10.25;6.57;;;;;;;;;;8345338;28;20045;-86
2022/06/27 00:20:02;;;;;;;8.00;6.15;;;;;;;;;;8342751;28;20474;-86
2022/06/27 00:24:06;;;;;;;10.13;6.53;;;;;;;;;;8340986;28;20057;-85
2022/06/27 00:28:08;;;;;;;9.13;6.65;;;;;;;;;;8337150;28;20481;-86
2022/06/27 00:32:11;;;;;;;8.98;6.90;;;;;;;;;;8334749;28;20090;-86
2022/06/27 00:36:15;;;;;;;12.20;6.68;;;;;;;;;;8345077;28;20045;-85
2022/06/27 00:40:18;;;;;;;10.18;6.90;;;;;;;;;;8343135;28;20053;-85
2022/06/27 00:44:31;;;;;;;9.43;6.60;;;;;;;;;;8344595;28;20110;-86
2022/06/27 00:48:34;;;;;;;9.48;6.78;;;;;;;;;;8338160;28;20049;-86
2022/06/27 00:52:38;;;;;;;11.13;7.55;;;;;;;;;;8354450;28;20405;-86
2022/06/27 00:56:41;;;;;;;9.90;7.22;;;;;;;;;;8340454;28;20041;-86
2022/06/27 01:00:43;;;;;;;10.27;6.47;;;;;;;;;;8336732;28;20049;-85
2022/06/27 01:04:46;;;;;;;9.80;6.57;;;;;;;;;;8335047;28;20049;-85
2022/06/27 01:08:50;;;;;;;9.82;7.20;;;;;;;;;;8344634;28;20041;-86
2022/06/27 01:12:53;;;;;;;8.13;6.90;;;;;;;;;;8343083;28;20049;-86
2022/06/27 01:16:57;;;;;;;7.68;6.32;;;;;;;;;;8345000;28;20071;-86
2022/06/27 01:21:00;;;;;;;9.10;6.80;;;;;;;;;;8338585;28;20041;-86
2022/06/27 01:25:05;;;;;;;9.02;6.80;;;;;;;;;;8343901;28;20072;-85
2022/06/27 01:29:08;;;;;;;9.98;7.30;;;;;;;;;;8333325;28;20037;-86
2022/06/27 01:33:11;;;;;;;8.23;6.75;;;;;;;;;;8338054;28;20045;-87
2022/06/27 01:37:13;;;;;;;10.00;6.93;;;;;;;;;;8344783;28;20486;-87
2022/06/27 01:41:17;;;;;;;8.88;6.65;;;;;;;;;;8345126;28;20559;-86
2022/06/27 01:45:20;;;;;;;9.00;6.72;;;;;;;;;;8337770;28;20058;-86
2022/06/27 01:49:23;;;;;;;10.02;7.00;;;;;;;;;;8337526;28;20106;-86
2022/06/27 01:53:27;;;;;;;10.55;7.10;;;;;;;;;;8351218;28;20052;-85
2022/06/27 01:57:31;;;;;;;8.27;6.85;;;;;;;;;;8336322;28;20382;-86
2022/06/27 02:01:34;;;;;;;10.90;6.88;;;;;;;;;;8335365;28;20041;-85
2022/06/27 02:05:37;;;;;;;11.18;7.55;;;;;;;;;;8331580;28;20053;-86
2022/06/27 02:09:40;;;;;;;8.05;6.72;;;;;;;;;;8343167;28;20132;-85
2022/06/27 02:13:44;;;;;;;8.45;7.03;;;;;;;;;;8345809;28;20126;-85
2022/06/27 02:17:47;;;;;;;10.20;7.93;;;;;;;;;;8338277;28;20047;-87
2022/06/27 02:21:49;;;;;;;11.55;7.10;;;;;;;;;;8337416;28;20095;-86
2022/06/27 02:25:53;;;;;;;8.68;6.80;;;;;;;;;;8334976;28;20455;-86
2022/06/27 02:29:57;;;;;;;11.27;7.43;;;;;;;;;;8337627;28;20420;-86
2022/06/27 02:33:59;;;;;;;9.77;7.38;;;;;;;;;;8352844;28;20111;-86
2022/06/27 02:38:03;;;;;;;10.27;7.53;;;;;;;;;;8348257;28;20042;-86
2022/06/27 02:42:09;;;;;;;11.13;7.57;;;;;;;;;;8344521;28;20474;-86
2022/06/27 02:46:13;;;;;;;10.70;7.30;;;;;;;;;;8353914;28;20052;-86
2022/06/27 02:50:17;;;;;;;8.70;7.55;;;;;;;;;;8346900;28;20049;-86
2022/06/27 02:54:22;;;;;;;10.43;7.22;;;;;;;;;;8348542;28;20041;-86
2022/06/27 02:58:32;;;;;;;9.27;7.05;;;;;;;;;;8342622;28;20476;-86
2022/06/27 03:02:37;;;;;;;10.80;7.95;;;;;;;;;;8337981;28;20056;-86
2022/06/27 03:06:40;;;;;;;8.95;7.47;;;;;;;;;;8345231;28;20042;-86
2022/06/27 03:10:42;;;;;;;10.82;7.28;;;;;;;;;;8349537;28;20418;-86
2022/06/27 03:14:45;;;;;;;8.25;7.15;;;;;;;;;;8344545;28;20045;-85
2022/06/27 03:18:50;;;;;;;9.43;7.68;;;;;;;;;;8348503;28;20040;-86
2022/06/27 03:22:53;;;;;;;8.95;7.22;;;;;;;;;;8339090;28;20053;-86
2022/06/27 03:26:55;;;;;;;12.90;7.50;;;;;;;;;;8337494;28;20049;-85
2022/06/27 03:30:58;;;;;;;9.32;6.82;;;;;;;;;;8354958;28;20488;-86
2022/06/27 03:35:02;;;;;;;11.07;7.32;;;;;;;;;;8345745;28;20056;-86
2022/06/27 03:39:05;;;;;;;10.15;7.07;;;;;;;;;;8346111;28;20086;-86
2022/06/27 03:43:08;;;;;;;11.23;7.00;;;;;;;;;;8343797;28;20052;-86
2022/06/27 03:47:11;;;;;;;9.70;6.90;;;;;;;;;;8358267;28;20425;-86
2022/06/27 03:51:15;;;;;;;8.52;7.10;;;;;;;;;;8355457;28;20052;-88
2022/06/27 03:55:18;;;;;;;9.65;8.65;;;;;;;;;;8356645;28;20052;-87
2022/06/27 03:59:20;;;;;;;12.20;6.88;;;;;;;;;;8359864;28;20500;-86
2022/06/27 04:03:23;;;;;;;10.80;6.53;;;;;;;;;;8362171;28;20044;-89
2022/06/27 04:07:27;;;;;;;9.40;6.25;;;;;;;;;;8350568;28;20049;-87
2022/06/27 04:11:30;;;;;;;12.07;6.55;;;;;;;;;;8347702;28;20162;-87
2022/06/27 04:15:34;;;;;;;8.25;5.47;;;;;;;;;;8353667;28;20068;-87
2022/06/27 04:19:37;;;;;;;8.98;6.32;;;;;;;;;;8355655;28;20041;-88
2022/06/27 04:23:41;;;;;;;7.40;6.35;;;;;;;;;;8350906;28;20474;-86
2022/06/27 04:27:44;;;;;;;7.97;5.70;;;;;;;;;;8349619;28;20041;-87
2022/06/27 04:31:47;;;;;;;8.13;5.53;;;;;;;;;;8359834;28;20053;-87
2022/06/27 04:35:50;;;;;;;11.13;5.70;;;;;;;;;;8362417;28;20485;-88
2022/06/27 04:39:54;;;;;;;8.68;5.72;;;;;;;;;;8355577;28;20044;-87
2022/06/27 04:43:57;;;;;;;8.65;6.35;;;;;;;;;;8355107;28;20041;-89
2022/06/27 04:48:00;;;;;;;8.57;5.43;;;;;;;;;;8347201;28;20449;-86
2022/06/27 04:52:04;;;;;;;9.93;5.80;;;;;;;;;;8352160;28;20071;-87
2022/06/27 04:56:10;;;;;;;8.00;5.13;;;;;;;;;;8336559;28;20045;-87
2022/06/27 05:00:14;;;;;;;8.38;4.82;;;;;;;;;;8346881;28;20489;-88
2022/06/27 05:04:18;;;;;;;7.95;4.80;;;;;;;;;;8357913;28;20508;-86
2022/06/27 05:08:21;;;;;;;8.63;5.10;;;;;;;;;;8699562;23;20049;-85
2022/06/27 05:12:26;;;;;;;7.78;4.68;;;;;;;;;;8324103;28;20145;-82
2022/06/27 05:16:29;;;;;;;7.78;4.80;;;;;;;;;;8324456;28;20054;-91
2022/06/27 05:20:32;;;;;;;5.95;4.20;;;;;;;;;;8328508;28;20048;-85
2022/06/27 05:24:35;;;;;;;6.63;4.05;;;;;;;;;;8327909;28;20048;-82
2022/06/27 05:28:40;;;;;;;8.05;3.72;;;;;;;;;;8327957;28;20454;-85
2022/06/27 05:32:44;;;;;;;8.65;4.47;;;;;;;;;;8314774;28;20080;-83
2022/06/27 05:36:47;;;;;;;7.05;4.15;;;;;;;;;;8314518;28;20149;-89
2022/06/27 05:40:50;;;;;;;7.57;4.95;;;;;;;;;;8311586;28;20485;-85
2022/06/27 05:44:55;;;;;;;5.80;4.05;;;;;;;;;;8314888;28;20045;-89
2022/06/27 05:49:00;;;;;;;6.20;3.85;;;;;;;;;;8314545;28;20069;-86
2022/06/27 05:53:06;;;;;;;7.70;3.78;;;;;;;;;;8317088;28;20397;-89
2022/06/27 05:57:09;;;;;;;7.63;3.70;;;;;;;;;;8315804;28;20046;-85
2022/06/27 06:01:13;;;;;;;6.78;4.20;;;;;;;;;;8314457;28;20122;-89
2022/06/27 06:05:17;;;;;;;6.90;3.78;;;;;;;;;;8313397;28;20486;-86
2022/06/27 06:09:20;;;;;;;9.43;5.00;;;;;;;;;;8317888;28;20061;-87
2022/06/27 06:13:24;;;;;;;5.07;3.80;;;;;;;;;;8304632;28;20045;-84
2022/06/27 06:17:28;;;;;;;6.05;3.60;;;;;;;;;;8310282;28;20137;-84
2022/06/27 06:21:36;;;;;;;12.55;4.45;;;;;;;;;;8306990;28;20041;-87
2022/06/27 06:25:39;;;;;;;6.50;3.10;;;;;;;;;;8303738;28;20057;-85
2022/06/27 06:29:43;;;;;;;5.65;3.17;;;;;;;;;;8322700;28;20049;-85
2022/06/27 06:33:48;;;;;;;6.18;3.20;;;;;;;;;;8321004;28;20501;-88
2022/06/27 06:38:00;;;;;;;11.32;4.03;;;;;;;;;;8308205;28;20060;-85
2022/06/27 06:42:09;;;;;;;3.95;2.80;;;;;;;;;;8316656;28;20041;-86
2022/06/27 06:46:13;;;;;;;11.52;3.90;;;;;;;;;;8291826;28;20045;-92
2022/06/27 06:50:24;;;;;;;3.97;2.85;;;;;;;;;;8321470;28;20085;-89
2022/06/27 06:54:31;;;;;;;5.68;2.85;;;;;;;;;;8305669;28;20072;-89
2022/06/27 06:58:35;;;;;;;6.00;2.95;;;;;;;;;;8309618;28;20144;-91
2022/06/27 07:02:43;;;;;;;6.68;2.55;;;;;;;;;;8313713;28;20042;-88
2022/06/27 07:06:48;;;;;;;18.80;4.47;;;;;;;;;;8313850;28;20060;-89
2022/06/27 07:10:56;;;;;;;8.13;3.70;;;;;;;;;;8311250;28;20488;-86
2022/06/27 07:15:03;;;;;;;3.67;2.28;;;;;;;;;;8318965;28;20547;-87
2022/06/27 07:19:08;;;;;;;7.15;2.33;;;;;;;;;;8309194;28;20050;-88
2022/06/27 07:23:13;;;;;;;4.40;2.40;;;;;;;;;;8323721;28;20402;-89
2022/06/27 07:27:17;;;;;;;6.45;2.97;;;;;;;;;;8311107;28;20555;-90
2022/06/27 07:31:20;;;;;;;8.38;2.75;;;;;;;;;;8320547;28;20129;-86
2022/06/27 07:35:24;;;;;;;4.03;2.90;;;;;;;;;;8317858;28;20167;-91
2022/06/27 07:39:28;;;;;;;5.60;2.50;;;;;;;;;;8311260;28;20082;-88
2022/06/27 07:43:32;;;;;;;5.05;3.45;;;;;;;;;;8310226;28;20045;-90
2022/06/27 07:47:36;;;;;;;5.72;2.60;;;;;;;;;;8324524;28;20075;-86
2022/06/27 07:51:41;;;;;;;5.63;3.03;;;;;;;;;;8307856;28;20127;-90
2022/06/27 07:55:52;;;;;;;4.15;2.63;;;;;;;;;;8313710;28;20049;-89
2022/06/27 08:00:01;;;;;;;7.43;2.72;;;;;;;;;;8320191;28;20055;-91
2022/06/27 08:04:11;;;;;;;4.00;2.45;;;;;;;;;;8310444;28;20552;-91
2022/06/27 08:08:15;;;;;;;4.25;2.88;;;;;;;;;;8335506;28;20775;-87
2022/06/27 08:12:21;;;;;;;7.68;2.50;;;;;;;;;;8333398;28;20060;-90
2022/06/27 08:16:32;;;;;;;4.65;2.60;;;;;;;;;;8322856;28;20053;-87
2022/06/27 08:20:40;;;;;;;8.57;3.30;;;;;;;;;;8327326;28;20120;-91
2022/06/27 08:24:44;;;;;;;7.35;5.00;;;;;;;;;;8313971;28;20076;-95
2022/06/27 08:28:49;;;;;;;4.90;2.60;;;;;;;;;;8316783;28;20080;-88
2022/06/27 08:32:56;;;;;;;6.90;2.53;;;;;;;;;;8309958;28;20069;-89
2022/06/27 08:36:59;;;;;;;4.80;2.30;;;;;;;;;;8317066;28;20045;-87
2022/06/27 08:41:04;;;;;;;5.40;2.47;;;;;;;;;;8317262;28;20516;-88
2022/06/27 08:45:11;;;;;;;4.97;2.60;;;;;;;;;;8311507;28;20220;-89
2022/06/27 08:49:20;;;;;;;31.15;21.33;;;;;;;;;;8312393;28;20597;-92
2022/06/27 08:53:25;;;;;;;;;;;;;;;;;;8311770;28;20104;-87
2022/06/27 08:57:28;;;;;;;8.40;5.60;;;;;;;;;;8317836;28;19925;-92
2022/06/27 09:01:37;;;;;;;28.92;23.65;;;;;;;;;;8319652;28;20046;-88
2022/06/27 09:05:49;;;;;;;7.10;3.38;;;;;;;;;;8313827;28;20099;-90
2022/06/27 09:09:52;;;;;;;8.18;6.55;;;;;;;;;;8316902;28;20132;-92
2022/06/27 09:13:56;;;;;;;10.57;3.78;;;;;;;;;;8315040;28;20050;-90
2022/06/27 09:18:07;;;;;;;18.20;6.65;;;;;;;;;;8313144;28;20050;-86
2022/06/27 09:22:14;;;;;;;14.73;4.05;;;;;;;;;;8321919;28;20053;-86
2022/06/27 09:26:20;;;;;;;13.93;3.80;;;;;;;;;;8305193;28;20107;-87
2022/06/27 09:30:29;;;;;;;7.57;3.25;;;;;;;;;;8325506;28;20477;-87
2022/06/27 09:34:34;;;;;;;8.43;4.38;;;;;;;;;;8307957;28;20050;-87
2022/06/27 09:38:42;;;;;;;13.55;4.60;;;;;;;;;;8321275;28;20045;-86
2022/06/27 09:42:49;;;;;;;5.65;3.13;;;;;;;;;;8306485;28;20056;-90
2022/06/27 09:47:06;;;;;;;10.95;4.55;;;;;;;;;;8312566;28;20053;-92
2022/06/27 09:51:18;;;;;;;13.00;4.97;;;;;;;;;;8312670;28;20484;-91
2022/06/27 10:00:33;;;;;;;10.50;4.00;;;;;;;;;;8309996;28;20053;-87
2022/06/27 10:04:39;;;;;;;28.10;9.93;;;;;;;;;;8303356;28;20053;-87
2022/06/27 10:08:49;;;;;;;29.85;11.45;;;;;;;;;;8325896;28;20413;-90
2022/06/27 10:13:02;;;;;;;15.35;3.10;;;;;;;;;;8354494;28;20128;-92
2022/06/27 10:17:19;;;;;;;21.50;6.78;;;;;;;;;;8348415;28;20730;-92
2022/06/27 10:21:27;;;;;;;35.65;12.25;;;;;;;;;;8350875;28;20041;-89
2022/06/27 10:25:42;;;;;;;31.45;13.50;;;;;;;;;;8347926;28;20103;-89
2022/06/27 10:29:47;;;;;;;26.45;9.40;;;;;;;;;;8328896;28;20045;-89
2022/06/27 10:33:51;;;;;;;14.50;4.38;;;;;;;;;;8351169;28;20053;-84
2022/06/27 10:37:54;;;;;;;17.05;5.18;;;;;;;;;;8339512;28;20412;-85
2022/06/27 10:42:00;;;;;;;8.23;3.33;;;;;;;;;;8336374;28;20124;-85
2022/06/27 10:46:43;;;;;;;11.77;4.43;;;;;;;;;;8350482;28;20045;-86
2022/06/27 10:50:46;;;;;;;7.35;2.58;;;;;;;;;;8342859;28;20046;-84
2022/06/27 10:54:53;;;;;;;16.85;6.88;;;;;;;;;;8348975;28;20408;-85
2022/06/27 10:59:02;;;;;;;12.00;4.68;;;;;;;;;;8338007;28;20480;-85
2022/06/27 11:03:08;;;;;;;5.75;2.67;;;;;;;;;;8357697;28;20055;-86
2022/06/27 11:07:12;;;;;;;8.23;3.00;;;;;;;;;;8349962;28;20124;-84
2022/06/27 11:11:17;;;;;;;6.22;2.53;;;;;;;;;;8346463;28;20057;-84
2022/06/27 11:15:23;;;;;;;8.30;4.60;;;;;;;;;;8344858;28;20041;-85
2022/06/27 11:23:55;;;;;;;6.30;2.45;;;;;;;;;;8348867;28;20091;-85
2022/06/27 11:31:57;;;;;;;6.63;2.88;;;;;;;;;;8347915;28;20485;-85
2022/06/27 11:32:27;;;;;;;5.72;2.80;;;;;;;;;;8345295;28;20455;-84
2022/06/27 11:36:51;;;;;;;8.05;4.00;;;;;;;;;;8323387;28;20049;-92
2022/06/27 11:45:49;;;;;;;7.15;2.70;;;;;;;;;;8359216;28;20496;-87
2022/06/27 11:50:04;;;;;;;6.18;3.20;;;;;;;;;;8349494;28;20128;-86
2022/06/27 11:54:14;;;;;;;8.55;3.75;;;;;;;;;;8366191;28;20405;-90
2022/06/27 11:58:50;;;;;;;6.20;2.80;;;;;;;;;;8347061;28;20041;-95
2022/06/27 12:07:28;;;;;;;6.18;2.78;;;;;;;;;;8393319;22;20052;-85
2022/06/27 12:11:51;;;;;;;6.47;2.40;;;;;;;;;;8387533;28;20057;-90
2022/06/27 12:16:04;;;;;;;3.55;2.50;;;;;;;;;;8378389;28;20040;-85
2022/06/27 12:20:09;;;;;;;7.97;2.83;;;;;;;;;;8376418;28;20051;-84
2022/06/27 12:24:21;;;;;;;5.32;2.53;;;;;;;;;;8386928;28;20094;-91
2022/06/27 12:28:28;;;;;;;7.10;2.50;;;;;;;;;;8386181;28;20094;-93
2022/06/27 12:32:33;;;;;;;5.30;2.22;;;;;;;;;;8391027;28;20052;-92
2022/06/27 12:36:37;;;;;;;11.07;2.80;;;;;;;;;;8377490;28;20068;-86
2022/06/27 12:40:43;;;;;;;5.78;2.30;;;;;;;;;;8375269;28;20055;-86
2022/06/27 12:44:48;;;;;;;4.03;2.60;;;;;;;;;;8380514;28;20101;-87
2022/06/27 12:48:55;;;;;;;4.22;2.40;;;;;;;;;;8375145;28;20423;-84
2022/06/27 12:52:58;;;;;;;3.60;2.10;;;;;;;;;;8369696;28;20047;-90
2022/06/27 12:57:05;;;;;;;5.25;2.58;;;;;;;;;;8393527;28;20102;-89
2022/06/27 13:01:10;;;;;;;8.25;2.78;;;;;;;;;;8390553;28;20048;-91
2022/06/27 13:05:14;;;;;;;5.07;2.50;;;;;;;;;;8391041;28;20060;-93
2022/06/27 13:09:17;;;;;;;3.95;2.50;;;;;;;;;;8373702;28;20049;-90
2022/06/27 13:13:23;;;;;;;3.58;2.47;;;;;;;;;;8387325;28;20758;-92
2022/06/27 13:17:30;;;;;;;5.82;2.65;;;;;;;;;;8386333;28;20045;-90
2022/06/27 13:21:33;;;;;;;5.03;2.22;;;;;;;;;;8390445;28;20106;-89
2022/06/27 13:25:37;;;;;;;5.32;2.35;;;;;;;;;;8388131;28;20728;-86
2022/06/27 13:29:43;;;;;;;4.85;2.60;;;;;;;;;;8389323;28;20037;-86
2022/06/27 13:33:49;;;;;;;5.15;2.55;;;;;;;;;;8380427;28;20052;-89
2022/06/27 13:37:54;;;;;;;4.28;2.58;;;;;;;;;;8382505;28;20043;-87
2022/06/27 13:42:12;;;;;;;7.57;2.60;;;;;;;;;;8386766;28;20570;-92
2022/06/27 13:46:25;;;;;;;6.05;2.45;;;;;;;;;;8367014;28;20037;-93
2022/06/27 13:50:40;;;;;;;5.97;2.55;;;;;;;;;;8385595;28;20500;-91
2022/06/27 13:55:02;;;;;;;5.55;2.45;;;;;;;;;;8377590;28;20045;-90
2022/06/27 13:59:23;;;;;;;4.63;2.85;;;;;;;;;;8377826;28;20076;-87
2022/06/27 14:03:36;;;;;;;5.97;2.72;;;;;;;;;;8384281;28;20052;-87
2022/06/27 14:07:52;;;;;;;5.32;2.60;;;;;;;;;;8381869;28;20496;-87
2022/06/27 14:12:20;;;;;;;8.02;2.50;;;;;;;;;;8376021;28;20565;-93
2022/06/27 14:16:29;;;;;;;5.78;2.50;;;;;;;;;;8385647;28;20102;-93
2022/06/27 14:20:46;;;;;;;5.50;2.47;;;;;;;;;;8387241;28;20044;-93
2022/06/27 14:25:02;;;;;;;5.57;2.75;;;;;;;;;;8389999;28;20079;-87
2022/06/27 14:29:19;;;;;;;;;;;;;;;;;;8373005;28;20057;-87
2022/06/27 14:33:47;;;;;;;5.63;2.50;;;;;;;;;;8379724;28;20338;-87
2022/06/27 14:42:55;;;;;;;7.07;2.55;;;;;;;;;;8384717;28;20052;-91
2022/06/27 14:47:56;;;;;;;6.03;2.83;;;;;;;;;;8378192;28;20051;-88
2022/06/27 14:52:16;;;;;;;6.38;2.55;;;;;;;;;;8376805;28;20053;-92
2022/06/27 14:56:47;;;;;;;3.08;2.22;;;;;;;;;;8373164;28;20045;-89
2022/06/27 15:01:04;;;;;;;3.80;2.20;;;;;;;;;;8371023;28;20068;-91
2022/06/27 15:05:49;;;;;;;5.57;2.40;;;;;;;;;;8356393;28;20065;-86
2022/06/27 15:10:12;;;;;;;4.68;2.50;;;;;;;;;;8278608;28;20074;-90
2022/06/27 15:14:34;;;;;;;7.30;2.92;;;;;;;;;;8281839;28;20157;-88
2022/06/27 15:18:56;;;;;;;4.75;2.20;;;;;;;;;;8287413;28;20045;-91
2022/06/27 15:42:34;;;;;;;5.70;2.80;;;;;;;;;;8517879;27;20142;-84
2022/06/27 15:46:40;;;;;;;8.85;3.25;;;;;;;;;;8509485;27;20050;-85
2022/06/27 15:50:51;;;;;;;6.13;2.47;;;;;;;;;;8508518;27;20046;-94
2022/06/27 15:54:57;;;;;;;8.15;3.38;;;;;;;;;;8513828;27;20161;-92
2022/06/27 15:59:03;;;;;;;3.83;2.50;;;;;;;;;;8517676;27;20422;-95
2022/06/27 16:03:06;;;;;;;4.75;3.17;;;;;;;;;;8501038;27;20055;-85
2022/06/27 16:07:09;;;;;;;5.82;2.83;;;;;;;;;;8523150;27;20063;-94
2022/06/27 16:11:12;;;;;;;3.70;2.30;;;;;;;;;;8489398;27;20039;-96
2022/06/27 16:15:21;;;;;;;6.10;2.80;;;;;;;;;;8507841;27;20039;-95
2022/06/27 16:19:31;;;;;;;5.68;3.13;;;;;;;;;;8511603;27;20405;-94
2022/06/27 16:23:47;;;;;;;5.75;2.90;;;;;;;;;;8506891;27;20040;-93
2022/06/27 16:27:57;;;;;;;3.83;2.72;;;;;;;;;;8514387;27;20058;-92
2022/06/27 16:32:13;;;;;;;4.43;3.00;;;;;;;;;;8514408;27;20070;-92
2022/06/27 16:36:25;;;;;;;3.85;2.40;;;;;;;;;;8507614;27;20054;-95
2022/06/27 16:40:30;;;;;;;5.68;2.60;;;;;;;;;;8498328;27;20473;-92
2022/06/27 16:44:43;;;;;;;5.47;2.75;;;;;;;;;;8482259;27;20050;-95
2022/06/27 16:48:55;;;;;;;4.88;3.20;;;;;;;;;;8478691;27;20075;-93
2022/06/27 16:53:09;;;;;;;3.42;2.42;;;;;;;;;;8487706;27;20047;-94
2022/06/27 16:57:28;;;;;;;9.30;8.40;;;;;;;;;;8490545;27;20043;-89
2022/06/27 17:01:37;;;;;;;5.78;2.90;;;;;;;;;;8482197;27;20104;-90
2022/06/27 17:05:48;;;;;;;8.40;4.72;;;;;;;;;;8491017;27;20042;-91
2022/06/27 17:09:57;;;;;;;8.13;5.15;;;;;;;;;;8481161;27;20100;-95
2022/06/27 17:14:05;;;;;;;7.57;4.03;;;;;;;;;;8484639;27;20039;-94
2022/06/27 17:18:18;;;;;;;5.82;3.17;;;;;;;;;;8478910;27;20048;-94
2022/06/27 17:22:26;;;;;;;8.75;2.50;;;;;;;;;;8490825;27;20508;-93
2022/06/27 17:26:47;;;;;;;5.65;2.70;;;;;;;;;;8483215;27;20130;-92
2022/06/27 17:31:22;;;;;;;4.75;2.58;;;;;;;;;;8476634;27;20055;-90
2022/06/27 17:35:54;;;;;;;4.05;2.38;;;;;;;;;;8478610;27;20047;-90
2022/06/27 17:40:18;;;;;;;5.18;2.70;;;;;;;;;;8476418;27;20067;-93
2022/06/27 17:44:53;;;;;;;4.40;2.60;;;;;;;;;;8478217;27;20051;-87
2022/06/27 17:49:12;;;;;;;5.63;3.33;;;;;;;;;;8472980;27;20428;-91
2022/06/27 17:58:10;;;;;;;3.97;2.70;;;;;;;;;;8386125;28;20049;-91
2022/06/27 18:02:41;;;;;;;4.93;2.63;;;;;;;;;;8381756;28;20637;-92
2022/06/27 18:11:42;;;;;;;6.50;3.17;;;;;;;;;;8364216;28;20130;-85
2022/06/27 18:16:14;;;;;;;6.57;2.95;;;;;;;;;;8387589;28;20048;-85
2022/06/27 18:20:22;;;;;;;8.27;4.97;;;;;;;;;;8387570;28;20084;-92
2022/06/27 18:24:28;;;;;;;10.88;6.20;;;;;;;;;;8386032;28;20440;-84
2022/06/27 18:28:31;;;;;;;8.15;4.20;;;;;;;;;;8386102;28;20082;-91
2022/06/27 18:32:38;;;;;;;6.85;3.70;;;;;;;;;;8389963;28;20127;-85
2022/06/27 18:36:41;;;;;;;5.70;3.55;;;;;;;;;;8380185;28;20430;-86
2022/06/27 18:41:01;;;;;;;9.60;5.38;;;;;;;;;;8382094;28;20429;-87
2022/06/27 18:45:14;;;;;;;8.35;5.20;;;;;;;;;;8380021;28;20138;-85
2022/06/27 18:50:02;;;;;;;11.77;6.22;;;;;;;;;;8487833;27;20043;-89
2022/06/27 18:54:25;;;;;;;9.02;6.30;;;;;;;;;;8487123;27;20429;-90
2022/06/27 18:58:35;;;;;;;12.15;7.25;;;;;;;;;;8496948;27;20405;-84
2022/06/27 19:02:38;;;;;;;5.75;3.90;;;;;;;;;;8478896;27;20047;-84
2022/06/27 19:06:44;;;;;;;8.27;4.35;;;;;;;;;;8482091;27;20052;-84
2022/06/27 19:10:47;;;;;;;6.75;4.10;;;;;;;;;;8473894;27;20050;-84
2022/06/27 19:14:51;;;;;;;5.13;3.25;;;;;;;;;;8464522;28;20044;-87
2022/06/27 19:18:54;;;;;;;5.45;3.80;;;;;;;;;;8464771;28;20054;-85
2022/06/27 19:22:59;;;;;;;9.20;3.42;;;;;;;;;;8466387;27;20101;-84
2022/06/27 19:27:03;;;;;;;4.43;3.10;;;;;;;;;;8464856;28;20047;-87
2022/06/27 19:31:07;;;;;;;5.70;3.78;;;;;;;;;;8475055;28;20047;-84
2022/06/27 19:35:14;;;;;;;5.20;3.60;;;;;;;;;;8466870;27;20402;-84
2022/06/27 19:39:19;;;;;;;7.38;3.97;;;;;;;;;;8478145;28;20070;-85
2022/06/27 19:43:22;;;;;;;4.97;3.40;;;;;;;;;;8462633;28;20142;-90
2022/06/27 19:47:26;;;;;;;6.45;3.47;;;;;;;;;;8463878;28;20471;-84
2022/06/27 19:51:29;;;;;;;4.90;3.50;;;;;;;;;;8463792;28;20051;-91
2022/06/27 19:55:35;;;;;;;6.90;3.67;;;;;;;;;;8463807;28;20075;-85
2022/06/27 19:59:38;;;;;;;32.58;11.70;;;;;;;;;;8463595;28;20499;-87
2022/06/27 20:03:43;;;;;;;10.10;7.47;;;;;;;;;;8472453;28;20043;-85
2022/06/27 20:07:46;;;;;;;9.05;5.45;;;;;;;;;;8474349;28;20040;-84
2022/06/27 20:11:52;;;;;;;6.88;4.35;;;;;;;;;;8463554;28;20071;-84
2022/06/27 20:15:58;;;;;;;8.07;6.35;;;;;;;;;;8464903;27;20055;-85
2022/06/27 20:20:03;;;;;;;30.15;23.60;;;;;;;;;;8469736;27;20027;-85
2022/06/27 20:24:10;;;;;;;9.88;7.95;;;;;;;;;;8469740;28;20035;-84
2022/06/27 20:28:16;;;;;;;11.70;9.45;;;;;;;;;;8489826;27;20051;-91
2022/06/27 20:32:23;;;;;;;14.35;11.50;;;;;;;;;;8469389;27;20039;-86
2022/06/27 20:36:27;;;;;;;11.88;5.93;;;;;;;;;;8469299;28;20067;-84
2022/06/27 20:40:31;;;;;;;7.60;4.43;;;;;;;;;;8488362;27;20055;-85
2022/06/27 20:44:38;;;;;;;7.03;4.18;;;;;;;;;;8482474;27;20048;-85
2022/06/27 20:48:43;;;;;;;5.57;4.22;;;;;;;;;;8469016;27;20052;-85
2022/06/27 20:52:47;;;;;;;6.35;3.97;;;;;;;;;;8469117;27;20071;-85
2022/06/27 20:56:51;;;;;;;5.90;3.75;;;;;;;;;;8468728;27;20053;-88
2022/06/27 21:00:56;;;;;;;5.78;3.80;;;;;;;;;;8468508;28;20089;-84
2022/06/27 21:05:00;;;;;;;5.25;3.95;;;;;;;;;;8481975;27;20126;-84
2022/06/27 21:13:25;;;;;;;9.57;3.80;;;;;;;;;;8481540;27;20047;-84
2022/06/27 21:17:30;;;;;;;6.30;4.10;;;;;;;;;;8468016;27;20075;-85
2022/06/27 21:21:33;;;;;;;8.70;3.95;;;;;;;;;;8468277;27;20047;-84
2022/06/27 21:25:37;;;;;;;5.68;3.65;;;;;;;;;;8467772;27;20478;-84
2022/06/27 21:29:40;;;;;;;8.55;4.40;;;;;;;;;;8467432;27;20051;-84
2022/06/27 21:33:45;;;;;;;7.97;4.55;;;;;;;;;;8467979;27;20535;-88
2022/06/27 21:37:48;;;;;;;6.50;4.32;;;;;;;;;;8472959;27;20043;-84
2022/06/27 21:41:52;;;;;;;8.05;4.35;;;;;;;;;;8478540;27;20112;-84
2022/06/27 21:45:55;;;;;;;6.43;4.05;;;;;;;;;;8466966;27;20043;-84
2022/06/27 21:50:00;;;;;;;12.32;4.45;;;;;;;;;;8466988;27;20101;-85
2022/06/27 21:54:02;;;;;;;6.30;4.38;;;;;;;;;;8487077;27;20510;-90
2022/06/27 21:58:06;;;;;;;7.90;4.47;;;;;;;;;;8467058;27;20437;-84
2022/06/27 22:02:08;;;;;;;6.45;3.92;;;;;;;;;;8466561;27;20051;-90
2022/06/27 22:06:12;;;;;;;6.28;4.63;;;;;;;;;;8469288;27;20040;-86
2022/06/27 22:10:15;;;;;;;6.15;4.28;;;;;;;;;;8466200;27;20135;-90
2022/06/27 22:14:18;;;;;;;6.35;4.20;;;;;;;;;;8478570;27;20447;-84
2022/06/27 22:18:24;;;;;;;6.82;4.85;;;;;;;;;;8473222;27;20043;-84
2022/06/27 22:22:29;;;;;;;7.25;4.10;;;;;;;;;;8492896;27;20050;-85
2022/06/27 22:26:31;;;;;;;9.50;4.57;;;;;;;;;;8470542;27;20048;-90
2022/06/27 22:30:34;;;;;;;5.20;4.13;;;;;;;;;;8471602;27;20047;-84
2022/06/27 22:34:37;;;;;;;8.57;4.53;;;;;;;;;;8465653;27;20039;-85
2022/06/27 22:38:41;;;;;;;7.55;4.75;;;;;;;;;;8477348;27;20050;-84
2022/06/27 22:42:44;;;;;;;5.88;4.35;;;;;;;;;;8467654;27;20042;-87
2022/06/27 22:46:46;;;;;;;6.57;4.63;;;;;;;;;;8465704;27;20479;-84
2022/06/27 22:50:49;;;;;;;7.03;4.90;;;;;;;;;;8464882;27;20050;-87
2022/06/27 22:54:53;;;;;;;8.68;4.63;;;;;;;;;;8465029;27;20044;-89
2022/06/27 22:58:55;;;;;;;7.85;4.75;;;;;;;;;;8464908;28;20071;-84
2022/06/27 23:02:58;;;;;;;7.25;4.35;;;;;;;;;;8464879;27;20046;-88
2022/06/27 23:07:01;;;;;;;6.50;4.47;;;;;;;;;;8464803;27;20456;-84
2022/06/27 23:11:05;;;;;;;5.95;4.55;;;;;;;;;;8465892;27;20520;-84
2022/06/27 23:15:10;;;;;;;6.22;4.40;;;;;;;;;;8464730;27;20036;-84
2022/06/27 23:19:13;;;;;;;6.70;4.60;;;;;;;;;;8471234;27;20092;-91
2022/06/27 23:23:15;;;;;;;8.43;4.95;;;;;;;;;;8464328;28;20050;-86
2022/06/27 23:27:19;;;;;;;5.97;4.47;;;;;;;;;;8464271;28;20372;-85
2022/06/27 23:31:22;;;;;;;5.50;3.83;;;;;;;;;;8464164;28;20039;-84
2022/06/27 23:35:24;;;;;;;7.40;4.72;;;;;;;;;;8470847;28;20054;-87
2022/06/27 23:39:27;;;;;;;9.25;4.68;;;;;;;;;;8482851;28;20640;-85
2022/06/27 23:43:32;;;;;;;7.05;4.28;;;;;;;;;;8478736;27;20044;-91
2022/06/27 23:47:34;;;;;;;10.10;5.07;;;;;;;;;;8464247;28;20424;-89
2022/06/27 23:51:37;;;;;;;7.45;4.93;;;;;;;;;;8471477;27;20492;-84
2022/06/27 23:55:39;;;;;;;10.07;5.28;;;;;;;;;;8483191;27;20059;-85
2022/06/27 23:59:44;;;;;;;8.25;4.65;;;;;;;;;;8472773;27;20036;-87
